Overview Statistics Trail Chart Weather Telemetry Raw packets
 

This is the latest recevied weather packets stored in our database for station/object KJ5FA-10. If no packets are shown the sender has not sent any weather packets the latest 10 day(s).

<< 1 2 3 4 5 6 7 >>
Time Temp. Humidity Pressure Rain* Wind** Luminosity Snow
1788482376 32.78° C 53% 1013.5 hPa 0 mm - - -
1788481477 33.33° C 52% 1013.4 hPa 0 mm - - -
1788480577 33.89° C 51% 1013.3 hPa 0 mm - - -
1788478776 35° C 48% 1013.2 hPa 0 mm - - -
1788476976 35° C 45% 1013.3 hPa 0 mm - - -
1788476078 35° C 46% 1012.9 hPa 0 mm - - -
1788475178 35° C 46% 1013 hPa 0 mm - - -
1788474278 35.56° C 45% 1013 hPa 0 mm - - -
1788471577 37.22° C 41% 1013.3 hPa 0 mm - - -
1788470676 36.11° C 43% 1013.3 hPa 0 mm - - -
1788469776 36.67° C 43% 1013.5 hPa 0 mm - - -
1788468877 36.11° C 44% 1013.6 hPa 0 mm - - -
1788467976 35.56° C 46% 1013.9 hPa 0 mm - - -
1788467076 35.56° C 45% 1014.3 hPa 0 mm - - -
1788466176 35.56° C 45% 1014.2 hPa 0 mm - - -
1788464377 35.56° C 45% 1014.6 hPa 0 mm - - -
1788463476 36.11° C 44% 1014.8 hPa 0 mm - - -
1788462578 36.67° C 44% 1014.9 hPa 0 mm - - -
1788460776 35° C 48% 1015.4 hPa 0 mm - - -
1788458976 35° C 49% 1015.6 hPa 0 mm - - -
1788457178 33.89° C 52% 1016.4 hPa 0 mm - - -
1788455378 33.33° C 55% 1016.7 hPa 0 mm - - -
1788453578 32.78° C 57% 1017 hPa 0 mm - - -
1788451801 32.22° C 57% 1017.1 hPa 0 mm - - -
1788449978 30° C 68% 1017.3 hPa 0 mm - - -

* Rain latest hour (hover to see other rain measurements)
** Current wind speed in m/s (hover to see current wind gust speed)